Track Кладиенко Олег

Time Latitude Longitude Accuracy (66% radius in meters) Altitude (meters) Speed (km/hour) Bearing (degrees) Battery (%) GPS flag
09:27:01 60.403387 30.333718 0 0 0 0 1 delete
09:27:00 60.403395 30.333722 0 0 0 0 1 delete
09:26:59 60.403398 30.333718 0 0 0 0 1 delete
09:26:58 60.403403 30.333720 0 0 0 0 1 delete
09:26:57 60.403408 30.333720 0 0 0 0 1 delete
09:26:56 60.403413 30.333720 0 0 0 0 1 delete
09:26:55 60.403418 30.333722 0 0 0 0 1 delete
09:26:54 60.403425 30.333720 0 0 0 0 1 delete
09:26:53 60.403430 30.333722 0 0 0 0 1 delete
09:26:52 60.403435 30.333718 0 0 0 0 1 delete
09:26:51 60.403442 30.333715 0 0 0 0 1 delete
09:26:50 60.403447 30.333713 0 0 0 0 1 delete
09:26:49 60.403457 30.333712 0 0 0 0 1 delete
09:26:48 60.403468 30.333713 0 0 0 0 1 delete
09:26:47 60.403483 30.333722 0 0 0 0 1 delete
09:26:46 60.403502 30.333725 0 0 0 0 1 delete
09:26:45 60.403523 30.333718 0 0 0 0 1 delete
09:26:44 60.403547 30.333702 0 0 0 0 1 delete
09:26:43 60.403568 30.333687 0 0 0 0 1 delete
09:26:42 60.403595 30.333667 0 0 0 0 1 delete
09:26:41 60.403612 30.333648 0 0 0 0 1 delete
09:26:40 60.403640 30.333622 0 0 0 0 1 delete
09:26:39 60.403660 30.333602 0 0 0 0 1 delete
09:26:38 60.403688 30.333582 0 0 0 0 1 delete
09:26:37 60.403708 30.333562 0 0 0 0 1 delete
09:26:36 60.403737 30.333542 0 0 0 0 1 delete
09:26:35 60.403762 30.333510 0 0 0 0 1 delete
09:26:34 60.403782 30.333475 0 0 0 0 1 delete
09:26:33 60.403807 30.333438 0 0 0 0 1 delete
09:26:32 60.403828 30.333390 0 0 0 0 1 delete
09:26:31 60.403850 30.333348 0 0 0 0 1 delete
09:26:30 60.403867 30.333312 0 0 0 0 1 delete
09:26:29 60.403880 30.333270 0 0 0 0 1 delete
09:26:28 60.403905 30.333223 0 0 0 0 1 delete
09:26:27 60.403927 30.333173 0 0 0 0 1 delete
09:26:26 60.403953 30.333127 0 0 0 0 1 delete
09:26:25 60.403975 30.333080 0 0 0 0 1 delete
09:26:24 60.403990 30.333038 0 0 0 0 1 delete
09:26:23 60.404010 30.332990 0 0 0 0 1 delete
09:26:22 60.404030 30.332943 0 0 0 0 1 delete
09:26:21 60.404045 30.332900 0 0 0 0 1 delete
09:26:20 60.404058 30.332853 0 0 0 0 1 delete
09:26:19 60.404070 30.332810 0 0 0 0 1 delete
09:26:18 60.404083 30.332768 0 0 0 0 1 delete
09:26:17 60.404097 30.332733 0 0 0 0 1 delete
09:26:16 60.404113 30.332693 0 0 0 0 1 delete
09:26:15 60.404125 30.332652 0 0 0 0 1 delete
09:26:14 60.404140 30.332605 0 0 0 0 1 delete
09:26:13 60.404155 30.332557 0 0 0 0 1 delete
09:26:12 60.404165 30.332520 0 0 0 0 1 delete